DW6198 Weather Reports


time (UTC)temp
C
wind
direction
speed
KPH
gust
KPH
rain 1hr
cm
rain 24hr
cm
rain mn
cm
humidity
%
barometer
mb
20190221154508 2 69 0.0 3.2 0.20 0.46 0.46 94 1026.8
20190221153006 2 60 0.0 4.8 0.13 0.36 0.36 94 1026.7
20190221151531 2 188 0.0 6.4 0.05 0.28 0.28 94 1026.7
20190221150011 2 136 0.0 3.2 0.05 0.25 0.25 94 1026.8
20190221144505 2 12 0.0 4.8 0.08 0.25 0.25 93 1026.8
20190221143206 2 31 0.0 3.2 0.08 0.23 0.23 93 1027.0
20190221141642 2 246 0.0 4.8 0.08 0.23 0.23 93 1027.1
20190221140202 2 317 0.0 1.6 0.15 0.20 0.20 93 1027.3
20190221134653 2 313 0.0 4.8 0.15 0.18 0.18 93 1027.4
20190221133120 2 359 1.6 4.8 0.15 0.15 0.15 92 1027.4
20190221131644 2 18 0.0 3.2 0.15 0.15 0.15 90 1027.5
20190221130243 2 22 0.0 3.2 0.05 0.05 0.05 88 1027.5
20190221124656 3 51 0.0 0.0 0.03 0.03 0.03 85 1027.6
20190221123145 3 98 0.0 1.6 0.00 0.00 0.00 85 1027.7
20190221121636 3 41 0.0 3.2 0.00 0.00 0.00 86 1027.7
20190221120302 3 184 0.0 3.2 0.00 0.00 0.00 85 1027.8
20190221114642 3 137 0.0 3.2 0.00 0.00 0.00 86 1027.8
20190221113116 3 233 0.0 6.4 0.00 0.00 0.00 82 1028.0
20190221111657 3 64 0.0 4.8 0.00 0.00 0.00 82 1028.0
20190221110129 3 79 0.0 4.8 0.00 0.00 0.00 84 1028.1
20190221104616 3 214 1.6 8.0 0.00 0.00 0.00 84 1028.4
20190221103141 3 110 1.6 4.8 0.00 0.00 0.00 86 1028.4
20190221101543 2 160 1.6 6.4 0.00 0.00 0.00 87 1028.6
20190221100104 2 195 0.0 8.0 0.00 0.00 0.00 88 1028.8
20190221094550 2 134 1.6 8.0 0.00 0.00 0.00 89 1028.8
20190221093035 2 193 1.6 9.7 0.00 0.00 0.00 88 1028.8
20190221091537 2 172 4.8 8.0 0.00 0.00 0.00 88 1028.8
20190221090118 2 136 1.6 6.4 0.00 0.00 0.00 88 1028.9
20190221084603 2 195 3.2 6.4 0.00 0.00 0.00 89 1028.8
20190221083049 1 195 3.2 4.8 0.00 0.00 0.00 90 1028.9
20190221081617 1 207 1.6 4.8 0.00 0.00 0.00 90 1028.7
20190221080034 1 198 1.6 3.2 0.00 0.00 0.00 91 1028.8
20190221074604 1 141 0.0 3.2 0.00 0.00 0.00 92 1028.8
20190221073023 0 210 0.0 4.8 0.00 0.00 0.00 93 1028.9
20190221071549 0 188 0.0 0.0 0.00 0.00 0.00 93 1028.8
20190221070027 0 245 0.0 0.0 0.00 0.00 0.00 93 1028.5
20190221064540 0 244 0.0 0.0 0.00 0.00 0.00 93 1028.4
20190221063022 0 245 0.0 0.0 0.00 0.00 0.00 93 1028.3
20190221061544 0 243 0.0 0.0 0.00 0.00 0.00 93 1028.4
20190221060024 0 245 0.0 0.0 0.00 0.00 0.00 93 1028.3
20190221054521 0 244 0.0 0.0 0.00 0.00 0.00 92 1028.1
20190221053016 0 245 0.0 0.0 0.00 0.00 0.00 92 1028.1
20190221051512 0 245 0.0 0.0 0.00 0.00 0.00 92 1028.1
20190221050014 0 245 0.0 0.0 0.00 0.00 0.00 92 1028.1
20190221044509 0 244 0.0 0.0 0.00 0.00 0.00 91 1028.2
20190221043005 0 244 0.0 0.0 0.00 0.00 0.00 92 1028.2
20190221041504 0 245 0.0 0.0 0.00 0.00 0.00 91 1028.3
20190221040006 0 245 0.0 0.0 0.00 0.00 0.00 91 1028.3
20190221034516 0 245 0.0 0.0 0.00 0.00 0.00 91 1028.3
20190221033003 0 245 0.0 0.0 0.00 0.00 0.00 90 1028.2
20190221031641 0 245 0.0 0.0 0.00 0.00 0.00 90 1028.3
20190221030123 0 245 0.0 0.0 0.00 0.00 0.00 90 1028.3
20190221024716 0 244 0.0 0.0 0.00 0.00 0.00 89 1028.2
20190221023208 0 245 0.0 0.0 0.00 0.00 0.00 89 1028.2
20190221021641 0 245 0.0 0.0 0.00 0.00 0.00 89 1028.1
20190221020148 0 245 0.0 0.0 0.00 0.00 0.00 89 1028.0
20190221014707 0 245 0.0 0.0 0.00 0.00 0.00 88 1028.1
20190221013147 0 245 0.0 0.0 0.00 0.00 0.00 88 1028.1
20190221011652 0 244 0.0 0.0 0.00 0.00 0.00 88 1028.1
20190221010158 1 244 0.0 0.0 0.00 0.00 0.00 87 1028.1
20190221004635 1 245 0.0 0.0 0.00 0.00 0.00 88 1028.2
20190221003130 1 245 0.0 0.0 0.00 0.00 0.00 87 1028.1
20190221001630 1 244 0.0 0.0 0.00 0.00 0.00 87 1028.0
20190221000157 1 245 0.0 0.0 0.00 0.00 0.00 87 1027.9
20190220234609 1 245 0.0 0.0 0.00 0.00 0.00 87 1027.9
20190220231701 1 245 0.0 0.0 0.00 0.00 0.00 87 1027.9
20190220230107 1 245 0.0 0.0 0.00 0.00 0.00 86 1027.9
20190220224557 1 244 0.0 0.0 0.00 0.00 0.00 86 1027.8
20190220223113 1 245 0.0 0.0 0.00 0.00 0.00 86 1027.8
20190220221602 1 245 0.0 0.0 0.00 0.00 0.00 86 1027.7
20190220220116 1 243 0.0 0.0 0.00 0.00 0.00 85 1027.7
20190220214609 1 245 0.0 0.0 0.00 0.00 0.00 86 1027.7
20190220213046 1 244 0.0 0.0 0.00 0.00 0.00 86 1027.6
20190220211548 1 244 0.0 0.0 0.00 0.00 0.00 85 1027.6
20190220210110 1 243 0.0 1.6 0.00 0.00 0.00 84 1027.5
20190220204620 1 243 0.0 1.6 0.00 0.00 0.00 83 1027.6
20190220201542 1 27 0.0 1.6 0.00 0.00 0.00 84 1027.5
20190220200100 1 27 0.0 1.6 0.00 0.00 0.00 86 1027.6
20190220194541 1 30 0.0 0.0 0.00 0.03 0.00 85 1027.5
20190220193057 1 264 0.0 1.6 0.00 0.03 0.00 85 1027.4
20190220191541 1 122 0.0 0.0 0.00 0.03 0.00 85 1027.3
20190220190123 1 122 0.0 1.6 0.00 0.03 0.00 84 1027.2
20190220184536 1 123 0.0 0.0 0.00 0.03 0.00 83 1027.1
20190220183023 1 122 0.0 1.6 0.00 0.03 0.00 84 1027.1
20190220181603 1 127 0.0 0.0 0.00 0.03 0.00 84 1027.0
20190220180026 1 127 0.0 3.2 0.00 0.03 0.00 83 1026.9
20190220174533 1 150 0.0 1.6 0.00 0.03 0.00 83 1026.8
20190220173049 1 141 0.0 3.2 0.00 0.03 0.00 83 1026.7
20190220171538 1 147 0.0 0.0 0.00 0.03 0.00 83 1026.6
20190220170105 1 147 0.0 1.6 0.00 0.03 0.00 82 1026.3
20190220164513 1 146 0.0 1.6 0.00 0.03 0.00 81 1026.2
20190220163029 1 147 0.0 3.2 0.00 0.03 0.00 80 1026.1
20190220161508 1 5 0.0 8.0 0.00 0.03 0.00 80 1026.1
20190220160025 2 248 0.0 9.7 0.00 0.03 0.00 80 1026.0